createdAt,value
2023-02-14T00:01:21.493Z,48.60
2023-02-14T00:03:52.882Z,56.05
2023-02-14T00:06:26.208Z,43.28
2023-02-14T00:08:59.904Z,41.35
2023-02-14T00:11:32.378Z,39.88
2023-02-14T00:14:21.711Z,42.70
2023-02-14T00:16:52.250Z,39.22
2023-02-14T00:19:25.890Z,47.13
2023-02-14T00:21:57.503Z,37.75
2023-02-14T00:24:28.501Z,39.15
2023-02-14T00:26:59.405Z,36.95
2023-02-14T00:29:32.472Z,35.85
2023-02-14T00:32:05.092Z,34.63
2023-02-14T00:34:37.499Z,36.15
2023-02-14T00:37:08.485Z,34.05
2023-02-14T00:39:39.437Z,32.40
2023-02-14T00:42:10.433Z,34.38
2023-02-14T00:44:41.621Z,33.53
2023-02-14T00:47:12.700Z,36.70
2023-02-14T00:49:43.484Z,33.53
2023-02-14T00:52:14.337Z,38.85
2023-02-14T00:54:44.718Z,36.78
2023-02-14T00:57:17.359Z,39.83
2023-02-14T00:59:48.244Z,41.60
2023-02-14T01:02:19.999Z,39.05
2023-02-14T01:04:51.238Z,41.17
2023-02-14T01:07:23.962Z,38.88
2023-02-14T01:09:58.441Z,35.38
2023-02-14T01:12:29.436Z,36.97
2023-02-14T01:15:00.519Z,31.02
2023-02-14T01:17:31.261Z,39.08
2023-02-14T01:20:02.457Z,35.20
2023-02-14T01:22:38.116Z,29.60
2023-02-14T01:25:08.876Z,31.42
2023-02-14T01:27:39.252Z,34.97
2023-02-14T01:30:11.752Z,40.13
2023-02-14T01:32:43.337Z,39.15
2023-02-14T01:35:14.828Z,36.03
2023-02-14T01:37:45.191Z,27.33
2023-02-14T01:40:19.460Z,30.45
2023-02-14T01:42:50.358Z,23.55
2023-02-14T01:45:24.117Z,25.05
2023-02-14T01:47:57.806Z,33.42
2023-02-14T01:50:33.547Z,36.63
2023-02-14T01:53:13.950Z,30.60
2023-02-14T01:55:48.085Z,30.98
2023-02-14T01:58:27.061Z,27.88
2023-02-14T02:01:01.191Z,27.02
2023-02-14T02:03:36.946Z,29.20
2023-02-14T02:06:19.580Z,35.03
2023-02-14T02:09:12.724Z,35.78
2023-02-14T02:11:45.126Z,28.50
2023-02-14T02:14:22.696Z,28.23
2023-02-14T02:17:34.231Z,30.92
2023-02-14T02:20:23.380Z,28.95
2023-02-14T02:23:23.883Z,31.20
2023-02-14T02:26:19.264Z,35.45
2023-02-14T02:29:08.368Z,31.33
2023-02-14T02:31:56.697Z,36.17
2023-02-14T02:34:55.120Z,32.22
2023-02-14T02:37:53.684Z,35.20
2023-02-14T02:41:03.638Z,37.10
2023-02-14T02:44:09.226Z,38.75
2023-02-14T02:46:51.067Z,34.33
2023-02-14T02:50:02.751Z,35.75
2023-02-14T02:53:09.066Z,61.83
2023-02-14T02:56:08.346Z,36.05
2023-02-14T02:59:01.102Z,36.35
2023-02-14T03:01:39.190Z,36.72
2023-02-14T03:04:31.265Z,36.17
2023-02-14T03:07:02.475Z,34.78
2023-02-14T03:09:33.973Z,35.85
2023-02-14T03:12:34.766Z,38.60
2023-02-14T03:15:29.683Z,31.65
2023-02-14T03:18:30.418Z,38.72
2023-02-14T03:21:07.629Z,32.10
2023-02-14T03:23:56.342Z,29.52
2023-02-14T03:26:39.147Z,30.27
2023-02-14T03:29:33.519Z,36.20
2023-02-14T03:32:16.615Z,30.70
2023-02-14T03:35:19.307Z,33.45
2023-02-14T03:37:57.077Z,33.63
2023-02-14T03:40:45.170Z,34.13
2023-02-14T03:43:27.622Z,32.90
2023-02-14T03:46:11.533Z,37.00
2023-02-14T03:48:42.714Z,34.20
2023-02-14T03:51:15.477Z,37.10
2023-02-14T03:53:57.748Z,39.60
2023-02-14T03:56:39.061Z,32.42
2023-02-14T03:59:17.834Z,35.10
2023-02-14T04:01:56.764Z,41.08
2023-02-14T04:04:30.232Z,33.35
2023-02-14T04:07:01.671Z,33.03
2023-02-14T04:09:32.156Z,32.20
2023-02-14T04:12:02.964Z,39.92
2023-02-14T04:14:35.402Z,36.20
2023-02-14T04:17:24.720Z,33.42
2023-02-14T04:19:56.000Z,40.15
2023-02-14T04:22:27.543Z,32.63
2023-02-14T04:24:58.546Z,32.00
2023-02-14T04:27:32.225Z,29.98
2023-02-14T04:30:03.005Z,32.83
2023-02-14T04:32:33.736Z,31.23
2023-02-14T04:35:04.503Z,28.70
2023-02-14T04:37:35.975Z,30.52
2023-02-14T04:40:08.050Z,25.00
2023-02-14T04:42:39.639Z,23.95
2023-02-14T04:45:10.896Z,23.95
2023-02-14T04:47:42.031Z,30.33
2023-02-14T04:50:13.656Z,25.35
2023-02-14T04:52:44.084Z,29.75
2023-02-14T04:55:23.232Z,26.88
2023-02-14T04:57:53.728Z,30.58
2023-02-14T05:00:25.200Z,31.58
2023-02-14T05:02:56.210Z,28.38
2023-02-14T05:05:27.158Z,25.40
2023-02-14T05:07:58.728Z,28.20
2023-02-14T05:10:30.183Z,22.02
2023-02-14T05:13:02.994Z,26.63
2023-02-14T05:15:33.934Z,25.77
2023-02-14T05:18:06.673Z,23.80
2023-02-14T05:20:38.006Z,31.60
2023-02-14T05:23:14.587Z,26.25
2023-02-14T05:25:45.311Z,24.73
2023-02-14T05:28:16.579Z,27.85
2023-02-14T05:30:47.182Z,24.27
2023-02-14T05:33:17.924Z,33.13
2023-02-14T05:35:48.643Z,33.58
2023-02-14T05:38:19.958Z,32.53
2023-02-14T05:40:51.288Z,37.05
2023-02-14T05:43:22.815Z,27.98
2023-02-14T05:45:55.178Z,24.65
2023-02-14T05:48:26.336Z,29.70
2023-02-14T05:50:57.078Z,32.38
2023-02-14T05:53:28.691Z,25.80
2023-02-14T05:56:08.863Z,31.02
2023-02-14T05:58:40.130Z,30.20
2023-02-14T06:01:11.097Z,28.55
2023-02-14T06:03:41.965Z,27.55
2023-02-14T06:06:12.989Z,33.90
2023-02-14T06:08:43.970Z,29.00
2023-02-14T06:11:18.015Z,26.40
2023-02-14T06:13:51.876Z,27.10
2023-02-14T06:16:22.487Z,23.33
2023-02-14T06:18:53.249Z,22.88
2023-02-14T06:21:23.796Z,21.65
2023-02-14T06:23:54.476Z,27.92
2023-02-14T06:26:28.806Z,21.55
2023-02-14T06:29:00.542Z,29.30
2023-02-14T06:31:32.421Z,24.70
2023-02-14T06:34:03.329Z,37.72
2023-02-14T06:36:33.731Z,25.10
2023-02-14T06:39:04.804Z,26.42
2023-02-14T06:41:35.708Z,26.27
2023-02-14T06:44:06.545Z,23.42
2023-02-14T06:46:37.496Z,18.58
2023-02-14T06:49:10.697Z,23.70
2023-02-14T06:51:41.149Z,25.90
2023-02-14T06:54:12.578Z,21.10
2023-02-14T06:56:53.312Z,27.90
2023-02-14T06:59:24.571Z,16.23
2023-02-14T07:01:55.836Z,19.73
2023-02-14T07:04:27.124Z,19.33
2023-02-14T07:06:58.228Z,17.45
2023-02-14T07:09:28.867Z,18.20
2023-02-14T07:11:59.579Z,17.40
2023-02-14T07:14:30.605Z,18.08
2023-02-14T07:17:02.191Z,17.98
2023-02-14T07:19:33.175Z,15.93
2023-02-14T07:22:04.706Z,16.05
2023-02-14T07:24:35.262Z,22.55
2023-02-14T07:27:06.019Z,23.90
2023-02-14T07:29:37.016Z,18.20
2023-02-14T07:32:08.014Z,26.95
2023-02-14T07:34:38.717Z,19.80
2023-02-14T07:37:11.446Z,25.48
2023-02-14T07:39:42.321Z,16.88
2023-02-14T07:42:13.550Z,29.88
2023-02-14T07:44:46.191Z,25.13
2023-02-14T07:47:17.306Z,19.13
2023-02-14T07:49:47.718Z,22.98
2023-02-14T07:52:19.189Z,18.65
2023-02-14T07:54:50.115Z,22.67
2023-02-14T07:57:21.071Z,19.50
2023-02-14T07:59:51.981Z,17.70
2023-02-14T08:02:22.557Z,19.10
2023-02-14T08:04:54.314Z,14.65
2023-02-14T08:07:25.106Z,22.02
2023-02-14T08:09:55.743Z,21.27
2023-02-14T08:12:44.675Z,26.90
2023-02-14T08:15:41.870Z,19.13
2023-02-14T08:18:13.014Z,20.80
2023-02-14T08:20:44.905Z,23.58
2023-02-14T08:23:16.012Z,22.70
2023-02-14T08:25:48.192Z,20.15
2023-02-14T08:28:20.752Z,23.95
2023-02-14T08:30:51.530Z,34.05
2023-02-14T08:33:23.024Z,24.23
2023-02-14T08:35:56.067Z,23.02
2023-02-14T08:38:26.691Z,18.83
2023-02-14T08:41:08.312Z,18.88
2023-02-14T08:43:40.551Z,20.92
2023-02-14T08:46:13.218Z,20.92
2023-02-14T08:48:44.539Z,18.38
2023-02-14T08:51:17.859Z,20.42
2023-02-14T08:53:51.778Z,14.93
2023-02-14T08:56:23.857Z,13.68
2023-02-14T08:58:55.808Z,18.02
2023-02-14T09:01:27.596Z,15.45
2023-02-14T09:03:59.072Z,15.05
2023-02-14T09:06:29.670Z,11.80
2023-02-14T09:09:02.477Z,11.98
2023-02-14T09:11:33.935Z,11.52
2023-02-14T09:14:07.510Z,17.13
2023-02-14T09:16:40.776Z,15.13
2023-02-14T09:19:11.648Z,11.65
2023-02-14T09:21:42.825Z,17.55
2023-02-14T09:24:14.096Z,13.82
2023-02-14T09:26:45.319Z,11.48
2023-02-14T09:29:17.112Z,12.88
2023-02-14T09:31:47.851Z,8.85
2023-02-14T09:34:19.006Z,13.55
2023-02-14T09:37:08.151Z,21.45
2023-02-14T09:39:39.828Z,13.75
2023-02-14T09:42:13.745Z,16.05
2023-02-14T09:44:49.369Z,11.07
2023-02-14T09:47:53.114Z,14.90
2023-02-14T09:50:55.593Z,12.82
2023-02-14T09:53:35.988Z,10.43
2023-02-14T09:56:15.774Z,17.33
2023-02-14T09:58:55.516Z,11.00
2023-02-14T10:01:51.118Z,12.55
2023-02-14T10:04:38.202Z,10.15
2023-02-14T10:07:24.698Z,8.73
2023-02-14T10:10:05.443Z,10.82
2023-02-14T10:12:35.958Z,9.55
2023-02-14T10:15:14.084Z,12.05
2023-02-14T10:17:59.025Z,15.57
2023-02-14T10:20:37.418Z,11.02
2023-02-14T10:23:32.086Z,11.75
2023-02-14T10:26:09.229Z,17.60
2023-02-14T10:28:50.163Z,11.95
2023-02-14T10:32:02.947Z,8.85
2023-02-14T10:34:46.783Z,13.50
2023-02-14T10:37:22.742Z,11.35
2023-02-14T10:40:23.130Z,9.07
2023-02-14T10:43:09.044Z,10.73
2023-02-14T10:46:00.821Z,10.18
2023-02-14T10:48:45.564Z,13.10
2023-02-14T10:51:41.052Z,18.60
2023-02-14T10:54:30.263Z,17.65
2023-02-14T10:57:17.667Z,14.38
2023-02-14T11:00:11.962Z,12.65
2023-02-14T11:02:45.965Z,15.73
2023-02-14T11:05:30.344Z,15.50
2023-02-14T11:08:29.188Z,13.73
2023-02-14T11:11:12.504Z,16.25
2023-02-14T11:13:46.322Z,13.13
2023-02-14T11:16:31.760Z,9.18
2023-02-14T11:19:21.657Z,11.95
2023-02-14T11:21:54.078Z,10.95
2023-02-14T11:24:40.794Z,12.60
2023-02-14T11:27:12.206Z,10.43
2023-02-14T11:29:42.853Z,12.68
2023-02-14T11:32:21.245Z,8.40
2023-02-14T11:35:05.016Z,11.57
2023-02-14T11:37:48.507Z,10.88
2023-02-14T11:40:46.816Z,6.63
2023-02-14T11:43:17.466Z,13.13
2023-02-14T11:45:50.357Z,11.57
2023-02-14T11:48:36.547Z,9.82
2023-02-14T11:51:11.232Z,11.05
2023-02-14T11:53:57.210Z,11.63
2023-02-14T11:57:05.720Z,13.60
2023-02-14T11:59:40.422Z,9.57
2023-02-14T12:02:40.028Z,13.00
2023-02-14T12:05:31.625Z,9.65
2023-02-14T12:08:05.266Z,9.40
2023-02-14T12:10:40.522Z,9.95
2023-02-14T12:13:20.245Z,13.13
2023-02-14T12:15:55.169Z,11.18
2023-02-14T12:18:47.131Z,11.15
2023-02-14T12:21:43.689Z,11.25
2023-02-14T12:24:34.354Z,10.05
2023-02-14T12:27:23.529Z,8.75
2023-02-14T12:30:16.245Z,15.75
2023-02-14T12:32:52.703Z,13.60
2023-02-14T12:35:43.415Z,14.13
2023-02-14T12:38:14.938Z,10.77
2023-02-14T12:41:05.531Z,11.35
2023-02-14T12:43:51.615Z,12.30
2023-02-14T12:46:37.471Z,15.93
2023-02-14T12:49:29.897Z,16.27
2023-02-14T12:52:19.126Z,14.38
2023-02-14T12:55:05.010Z,10.57
2023-02-14T12:57:42.148Z,7.50
2023-02-14T13:00:16.297Z,11.88
2023-02-14T13:03:00.254Z,11.57
2023-02-14T13:05:52.411Z,11.45
2023-02-14T13:08:31.105Z,9.60
2023-02-14T13:11:28.012Z,9.05
2023-02-14T13:14:10.939Z,11.70
2023-02-14T13:17:13.795Z,7.95
2023-02-14T13:20:05.238Z,10.45
2023-02-14T13:22:37.881Z,11.07
2023-02-14T13:25:22.836Z,12.40
2023-02-14T13:27:54.440Z,10.55
2023-02-14T13:30:37.857Z,12.93
2023-02-14T13:33:35.158Z,11.98
2023-02-14T13:36:09.493Z,16.30
2023-02-14T13:38:49.185Z,11.90
2023-02-14T13:41:20.659Z,14.80
2023-02-14T13:44:03.456Z,9.15
2023-02-14T13:46:33.780Z,8.27
2023-02-14T13:49:22.993Z,9.98
2023-02-14T13:51:56.943Z,13.30
2023-02-14T13:54:31.133Z,8.70
2023-02-14T13:57:04.350Z,8.75
2023-02-14T13:59:36.685Z,7.65
2023-02-14T14:02:30.313Z,9.02
2023-02-14T14:05:01.643Z,10.13
2023-02-14T14:07:32.712Z,9.43
2023-02-14T14:10:05.208Z,7.05
2023-02-14T14:12:36.130Z,7.78
2023-02-14T14:15:07.161Z,10.43
2023-02-14T14:17:40.207Z,12.10
2023-02-14T14:20:22.010Z,9.13
2023-02-14T14:22:58.347Z,8.80
2023-02-14T14:25:43.108Z,10.07
2023-02-14T14:28:24.022Z,9.05
2023-02-14T14:30:57.353Z,9.50
2023-02-14T14:33:31.430Z,13.95
2023-02-14T14:36:08.196Z,14.80
2023-02-14T14:38:53.985Z,13.13
2023-02-14T14:41:33.465Z,14.30
2023-02-14T14:44:06.444Z,10.38
2023-02-14T14:46:36.808Z,11.38
2023-02-14T14:49:11.394Z,10.80
2023-02-14T14:51:42.043Z,11.05
2023-02-14T14:54:22.298Z,16.50
2023-02-14T14:56:59.262Z,17.05
2023-02-14T14:59:38.236Z,15.90
2023-02-14T15:02:25.355Z,19.13
2023-02-14T15:04:56.266Z,23.42
2023-02-14T15:07:31.551Z,21.05
2023-02-14T15:10:02.967Z,20.30
2023-02-14T15:12:51.514Z,21.27
2023-02-14T15:15:22.076Z,21.88
2023-02-14T15:18:08.568Z,20.80
2023-02-14T15:20:40.494Z,20.45
2023-02-14T15:23:23.412Z,20.38
2023-02-14T15:25:54.090Z,19.48
2023-02-14T15:28:33.368Z,20.20
2023-02-14T15:31:06.801Z,22.85
2023-02-14T15:33:38.110Z,22.52
2023-02-14T15:36:20.485Z,22.50
2023-02-14T15:38:55.228Z,20.98
2023-02-14T15:41:27.900Z,22.52
2023-02-14T15:43:59.279Z,22.65
2023-02-14T15:46:36.692Z,26.67
2023-02-14T15:49:10.613Z,26.02
2023-02-14T15:51:42.637Z,19.55
2023-02-14T15:54:47.385Z,25.70
2023-02-14T15:57:26.445Z,29.75
2023-02-14T15:59:57.662Z,25.50
2023-02-14T16:02:30.155Z,22.02
2023-02-14T16:05:22.866Z,23.23
2023-02-14T16:08:04.452Z,24.08
2023-02-14T16:10:37.700Z,28.58
2023-02-14T16:13:20.457Z,27.38
2023-02-14T16:16:06.098Z,28.35
2023-02-14T16:18:48.648Z,24.77
2023-02-14T16:21:25.343Z,26.02
2023-02-14T16:24:12.814Z,25.67
2023-02-14T16:26:45.239Z,30.25
2023-02-14T16:29:23.618Z,31.80
2023-02-14T16:32:15.163Z,30.08
2023-02-14T16:34:48.318Z,27.08
2023-02-14T16:37:27.637Z,29.63
2023-02-14T16:40:01.493Z,28.17
2023-02-14T16:42:33.688Z,31.25
2023-02-14T16:45:04.186Z,23.08
2023-02-14T16:47:37.533Z,20.83
2023-02-14T16:50:11.048Z,23.48
2023-02-14T16:52:42.903Z,21.00
2023-02-14T16:55:18.336Z,20.05
2023-02-14T16:57:51.005Z,26.77
2023-02-14T17:00:22.963Z,25.70
2023-02-14T17:03:04.365Z,28.40
2023-02-14T17:05:36.456Z,22.75
2023-02-14T17:08:09.130Z,22.05
2023-02-14T17:10:41.273Z,17.05
2023-02-14T17:13:12.366Z,22.40
2023-02-14T17:15:44.171Z,24.85
2023-02-14T17:18:17.667Z,14.52
2023-02-14T17:20:57.201Z,20.80
2023-02-14T17:23:32.048Z,18.25
2023-02-14T17:26:03.036Z,24.60
2023-02-14T17:28:34.184Z,22.73
2023-02-14T17:31:08.155Z,18.05
2023-02-14T17:33:40.040Z,18.60
2023-02-14T17:36:13.658Z,20.65
2023-02-14T17:38:44.887Z,18.83
2023-02-14T17:41:22.758Z,17.08
2023-02-14T17:44:01.252Z,19.25
2023-02-14T17:46:33.071Z,17.98
2023-02-14T17:49:07.745Z,18.38
2023-02-14T17:51:38.611Z,20.20
2023-02-14T17:54:09.257Z,19.98
2023-02-14T17:56:40.395Z,18.25
2023-02-14T17:59:11.500Z,15.85
2023-02-14T18:01:42.499Z,19.60
2023-02-14T18:04:12.954Z,22.25
2023-02-14T18:06:44.119Z,17.20
2023-02-14T18:09:15.161Z,20.33
2023-02-14T18:11:46.905Z,19.75
2023-02-14T18:14:17.912Z,19.73
2023-02-14T18:16:49.053Z,18.33
2023-02-14T18:19:20.130Z,20.02
2023-02-14T18:21:50.647Z,21.42
2023-02-14T18:24:21.600Z,20.73
2023-02-14T18:26:54.877Z,22.08
2023-02-14T18:29:25.522Z,23.92
2023-02-14T18:31:56.202Z,19.80
2023-02-14T18:34:30.073Z,17.23
2023-02-14T18:37:02.795Z,19.52
2023-02-14T18:39:34.516Z,18.77
2023-02-14T18:42:06.317Z,19.80
2023-02-14T18:44:37.456Z,20.98
2023-02-14T18:47:09.081Z,32.40
2023-02-14T18:49:39.602Z,21.33
2023-02-14T18:52:10.137Z,17.80
2023-02-14T18:54:40.618Z,15.80
2023-02-14T18:57:11.776Z,17.83
2023-02-14T18:59:42.219Z,23.25
2023-02-14T19:02:13.360Z,23.60
2023-02-14T19:04:44.345Z,16.40
2023-02-14T19:07:17.171Z,22.00
2023-02-14T19:09:49.982Z,21.48
2023-02-14T19:12:20.660Z,21.48
2023-02-14T19:14:54.552Z,21.20
2023-02-14T19:17:25.180Z,17.73
2023-02-14T19:20:09.414Z,19.75
2023-02-14T19:22:43.420Z,18.25
2023-02-14T19:25:13.680Z,14.95
2023-02-14T19:27:44.417Z,18.80
2023-02-14T19:30:16.036Z,20.70
2023-02-14T19:32:46.815Z,18.10
2023-02-14T19:35:17.624Z,18.90
2023-02-14T19:37:54.421Z,19.65
2023-02-14T19:40:27.850Z,21.33
2023-02-14T19:42:58.486Z,16.67
2023-02-14T19:45:33.298Z,20.13
2023-02-14T19:48:04.561Z,16.63
2023-02-14T19:50:34.985Z,14.95
2023-02-14T19:53:05.773Z,17.27
2023-02-14T19:55:36.504Z,18.20
2023-02-14T19:58:07.522Z,16.92
2023-02-14T20:00:39.053Z,16.45
2023-02-14T20:03:10.915Z,16.80
2023-02-14T20:05:41.800Z,19.75
2023-02-14T20:08:12.469Z,15.45
2023-02-14T20:10:42.894Z,18.27
2023-02-14T20:13:13.807Z,15.02
2023-02-14T20:15:47.610Z,15.88
2023-02-14T20:18:18.697Z,15.35
2023-02-14T20:21:04.577Z,15.32
2023-02-14T20:23:38.543Z,15.70
2023-02-14T20:26:16.342Z,12.18
2023-02-14T20:28:49.761Z,13.13
2023-02-14T20:31:20.835Z,16.27
2023-02-14T20:33:54.486Z,21.88
2023-02-14T20:36:28.746Z,20.05
2023-02-14T20:39:01.772Z,16.42
2023-02-14T20:41:35.392Z,18.90
2023-02-14T20:44:14.194Z,16.58
2023-02-14T20:46:49.521Z,15.82
2023-02-14T20:49:20.901Z,13.45
2023-02-14T20:51:53.216Z,20.48
2023-02-14T20:54:28.316Z,11.27
2023-02-14T20:56:59.226Z,16.25
2023-02-14T20:59:30.380Z,15.43
2023-02-14T21:02:01.346Z,16.23
2023-02-14T21:04:32.010Z,19.77
2023-02-14T21:07:08.616Z,15.20
2023-02-14T21:09:39.888Z,16.27
2023-02-14T21:12:18.616Z,13.82
2023-02-14T21:14:49.766Z,15.50
2023-02-14T21:17:20.795Z,21.55
2023-02-14T21:19:54.000Z,16.42
2023-02-14T21:22:29.727Z,18.10
2023-02-14T21:25:00.104Z,16.13
2023-02-14T21:27:33.819Z,17.75
2023-02-14T21:30:08.246Z,19.92
2023-02-14T21:32:39.025Z,21.30
2023-02-14T21:35:10.130Z,17.42
2023-02-14T21:37:40.546Z,20.67
2023-02-14T21:40:11.662Z,16.63
2023-02-14T21:42:45.480Z,19.08
2023-02-14T21:45:34.195Z,19.88
2023-02-14T21:48:23.316Z,17.13
2023-02-14T21:50:54.651Z,16.80
2023-02-14T21:53:25.825Z,17.45
2023-02-14T21:55:56.170Z,21.23
2023-02-14T21:58:26.907Z,25.45
2023-02-14T22:00:57.477Z,21.27
2023-02-14T22:03:30.365Z,22.15
2023-02-14T22:06:08.248Z,23.00
2023-02-14T22:08:38.809Z,24.80
2023-02-14T22:11:12.363Z,26.55
2023-02-14T22:13:43.637Z,29.15
2023-02-14T22:16:17.132Z,26.73
2023-02-14T22:18:51.189Z,27.17
2023-02-14T22:21:27.488Z,22.33
2023-02-14T22:23:58.194Z,27.35
2023-02-14T22:26:31.393Z,24.88
2023-02-14T22:29:03.784Z,22.55
2023-02-14T22:31:44.592Z,24.20
2023-02-14T22:34:21.600Z,22.45
2023-02-14T22:36:53.453Z,29.20
2023-02-14T22:39:24.363Z,23.98
2023-02-14T22:41:55.222Z,24.42
2023-02-14T22:44:26.127Z,28.23
2023-02-14T22:46:56.904Z,24.33
2023-02-14T22:49:27.625Z,30.50
2023-02-14T22:51:58.031Z,30.73
2023-02-14T22:54:29.046Z,35.22
2023-02-14T22:57:00.915Z,30.92
2023-02-14T22:59:33.182Z,30.27
2023-02-14T23:02:04.460Z,26.80
2023-02-14T23:04:35.463Z,31.70
2023-02-14T23:07:06.958Z,24.98
2023-02-14T23:09:40.305Z,35.03
2023-02-14T23:12:30.387Z,33.50
2023-02-14T23:15:18.935Z,33.47
2023-02-14T23:18:07.842Z,31.13
2023-02-14T23:20:57.165Z,33.28
2023-02-14T23:23:34.485Z,31.67
2023-02-14T23:26:05.387Z,38.55
2023-02-14T23:28:45.565Z,35.33
2023-02-14T23:31:16.279Z,37.97
2023-02-14T23:33:47.755Z,38.08
2023-02-14T23:36:19.058Z,35.63
2023-02-14T23:38:49.672Z,40.22
2023-02-14T23:41:38.272Z,45.67
2023-02-14T23:44:09.396Z,46.90
2023-02-14T23:46:39.844Z,50.72
2023-02-14T23:49:10.767Z,37.90
2023-02-14T23:51:41.798Z,48.67
2023-02-14T23:54:13.021Z,46.85
2023-02-14T23:56:44.393Z,43.03
2023-02-14T23:59:23.661Z,49.35
